createdAt,value
2022-08-24T00:00:58.377Z,21.82
2022-08-24T00:03:25.075Z,21.81
2022-08-24T00:05:57.410Z,21.79
2022-08-24T00:08:24.023Z,21.78
2022-08-24T00:10:50.763Z,21.76
2022-08-24T00:13:18.375Z,21.76
2022-08-24T00:15:45.255Z,21.74
2022-08-24T00:18:13.818Z,21.73
2022-08-24T00:20:44.960Z,21.72
2022-08-24T00:23:11.928Z,21.72
2022-08-24T00:25:38.459Z,21.73
2022-08-24T00:28:06.467Z,21.71
2022-08-24T00:30:34.475Z,21.70
2022-08-24T00:33:01.405Z,21.71
2022-08-24T00:35:29.568Z,21.70
2022-08-24T00:37:56.530Z,21.70
2022-08-24T00:40:26.465Z,21.69
2022-08-24T00:42:53.997Z,21.68
2022-08-24T00:45:22.113Z,21.66
2022-08-24T00:47:55.727Z,21.64
2022-08-24T00:50:25.585Z,21.64
2022-08-24T00:52:56.402Z,21.61
2022-08-24T00:55:32.488Z,21.62
2022-08-24T00:58:03.802Z,21.61
2022-08-24T01:00:34.878Z,21.60
2022-08-24T01:03:05.662Z,21.59
2022-08-24T01:05:33.416Z,21.59
2022-08-24T01:08:03.744Z,21.59
2022-08-24T01:10:33.859Z,21.58
2022-08-24T01:13:04.810Z,21.57
2022-08-24T01:15:35.529Z,21.56
2022-08-24T01:18:03.002Z,21.56
2022-08-24T01:20:29.648Z,21.55
2022-08-24T01:23:05.543Z,21.56
2022-08-24T01:25:35.617Z,21.54
2022-08-24T01:28:07.749Z,21.53
2022-08-24T01:30:36.259Z,21.52
2022-08-24T01:33:06.802Z,21.51
2022-08-24T01:35:34.822Z,21.49
2022-08-24T01:38:04.906Z,21.49
2022-08-24T01:40:36.436Z,21.47
2022-08-24T01:43:07.027Z,21.48
2022-08-24T01:45:34.457Z,21.46
2022-08-24T01:48:01.192Z,21.46
2022-08-24T01:50:27.890Z,21.47
2022-08-24T01:53:05.019Z,21.47
2022-08-24T01:55:34.226Z,21.48
2022-08-24T01:58:01.584Z,21.46
2022-08-24T02:00:28.976Z,21.46
2022-08-24T02:02:55.957Z,21.45
2022-08-24T02:05:23.328Z,21.44
2022-08-24T02:07:49.841Z,21.45
2022-08-24T02:10:17.131Z,21.43
2022-08-24T02:12:47.749Z,21.41
2022-08-24T02:15:14.411Z,21.40
2022-08-24T02:17:41.035Z,21.40
2022-08-24T02:20:08.683Z,21.39
2022-08-24T02:22:35.244Z,21.39
2022-08-24T02:25:01.840Z,21.37
2022-08-24T02:27:29.152Z,21.38
2022-08-24T02:29:56.964Z,21.37
2022-08-24T02:32:23.454Z,21.36
2022-08-24T02:34:50.027Z,21.37
2022-08-24T02:37:21.328Z,21.35
2022-08-24T02:39:47.857Z,21.35
2022-08-24T02:42:14.416Z,21.33
2022-08-24T02:44:41.043Z,21.32
2022-08-24T02:47:09.191Z,21.33
2022-08-24T02:49:36.085Z,21.34
2022-08-24T02:52:03.127Z,21.33
2022-08-24T02:54:29.673Z,21.33
2022-08-24T02:56:56.182Z,21.33
2022-08-24T02:59:23.120Z,21.31
2022-08-24T03:01:50.419Z,21.30
2022-08-24T03:04:19.139Z,21.30
2022-08-24T03:06:46.067Z,21.31
2022-08-24T03:09:12.849Z,21.29
2022-08-24T03:11:39.999Z,21.27
2022-08-24T03:14:11.732Z,21.29
2022-08-24T03:16:38.281Z,21.29
2022-08-24T03:19:05.052Z,21.29
2022-08-24T03:21:33.015Z,21.29
2022-08-24T03:23:59.606Z,21.28
2022-08-24T03:26:26.150Z,21.28
2022-08-24T03:28:53.063Z,21.27
2022-08-24T03:31:19.763Z,21.27
2022-08-24T03:33:46.433Z,21.27
2022-08-24T03:36:14.442Z,21.26
2022-08-24T03:38:42.634Z,21.26
2022-08-24T03:41:09.559Z,21.25
2022-08-24T03:43:38.108Z,21.24
2022-08-24T03:46:06.972Z,21.24
2022-08-24T03:48:33.673Z,21.23
2022-08-24T03:51:00.667Z,21.23
2022-08-24T03:53:27.268Z,21.23
2022-08-24T03:55:55.087Z,21.24
2022-08-24T03:58:21.658Z,21.21
2022-08-24T04:00:48.254Z,21.19
2022-08-24T04:03:15.350Z,21.20
2022-08-24T04:05:42.724Z,21.18
2022-08-24T04:08:10.156Z,21.18
2022-08-24T04:10:37.433Z,21.18
2022-08-24T04:13:05.656Z,21.18
2022-08-24T04:15:32.348Z,21.16
2022-08-24T04:17:58.997Z,21.16
2022-08-24T04:20:25.531Z,21.17
2022-08-24T04:22:52.232Z,21.16
2022-08-24T04:25:24.309Z,21.15
2022-08-24T04:27:51.839Z,21.13
2022-08-24T04:30:19.835Z,21.13
2022-08-24T04:32:46.357Z,21.12
2022-08-24T04:35:12.888Z,21.10
2022-08-24T04:37:39.420Z,21.10
2022-08-24T04:40:06.736Z,21.08
2022-08-24T04:42:33.518Z,21.08
2022-08-24T04:45:00.493Z,21.07
2022-08-24T04:47:28.337Z,21.07
2022-08-24T04:49:54.858Z,21.09
2022-08-24T04:52:21.433Z,21.06
2022-08-24T04:54:48.019Z,21.05
2022-08-24T04:57:17.908Z,21.05
2022-08-24T04:59:45.247Z,21.04
2022-08-24T05:02:12.905Z,21.04
2022-08-24T05:04:40.820Z,21.05
2022-08-24T05:07:07.454Z,21.04
2022-08-24T05:09:34.039Z,21.03
2022-08-24T05:12:01.602Z,21.04
2022-08-24T05:14:28.941Z,21.03
2022-08-24T05:16:55.865Z,21.02
2022-08-24T05:19:23.167Z,21.02
2022-08-24T05:21:51.038Z,21.01
2022-08-24T05:24:18.325Z,21.01
2022-08-24T05:26:45.399Z,21.01
2022-08-24T05:29:12.441Z,21.00
2022-08-24T05:31:42.615Z,21.01
2022-08-24T05:34:09.383Z,20.98
2022-08-24T05:36:37.762Z,20.98
2022-08-24T05:39:11.111Z,20.96
2022-08-24T05:41:38.338Z,20.97
2022-08-24T05:44:08.937Z,20.97
2022-08-24T05:46:36.795Z,20.96
2022-08-24T05:49:04.383Z,20.96
2022-08-24T05:51:31.584Z,20.95
2022-08-24T05:53:58.416Z,20.95
2022-08-24T05:56:31.726Z,20.96
2022-08-24T05:58:58.613Z,20.94
2022-08-24T06:01:27.219Z,20.95
2022-08-24T06:03:55.371Z,20.96
2022-08-24T06:06:24.313Z,20.97
2022-08-24T06:08:53.894Z,20.98
2022-08-24T06:11:22.615Z,20.98
2022-08-24T06:14:00.407Z,20.98
2022-08-24T06:16:27.106Z,20.99
2022-08-24T06:18:54.121Z,21.01
2022-08-24T06:21:23.472Z,21.01
2022-08-24T06:23:50.802Z,21.00
2022-08-24T06:26:21.361Z,21.00
2022-08-24T06:28:50.216Z,21.02
2022-08-24T06:31:18.782Z,21.03
2022-08-24T06:33:45.489Z,21.03
2022-08-24T06:36:12.143Z,21.04
2022-08-24T06:38:38.652Z,21.05
2022-08-24T06:41:06.010Z,21.06
2022-08-24T06:43:33.777Z,21.07
2022-08-24T06:46:00.302Z,21.08
2022-08-24T06:48:28.599Z,21.08
2022-08-24T06:50:55.339Z,21.09
2022-08-24T06:53:21.956Z,21.11
2022-08-24T06:55:50.582Z,21.11
2022-08-24T06:58:17.319Z,21.12
2022-08-24T07:00:43.952Z,21.13
2022-08-24T07:03:10.573Z,21.13
2022-08-24T07:05:39.690Z,21.14
2022-08-24T07:08:07.420Z,21.16
2022-08-24T07:10:34.302Z,21.16
2022-08-24T07:13:01.254Z,21.17
2022-08-24T07:15:27.838Z,21.18
2022-08-24T07:17:54.365Z,21.17
2022-08-24T07:20:21.072Z,21.18
2022-08-24T07:22:48.880Z,21.20
2022-08-24T07:25:15.793Z,21.20
2022-08-24T07:27:42.715Z,21.23
2022-08-24T07:30:26.583Z,21.23
2022-08-24T07:32:53.902Z,21.25
2022-08-24T07:35:20.605Z,21.26
2022-08-24T07:37:48.527Z,21.27
2022-08-24T07:40:17.926Z,21.27
2022-08-24T07:42:48.231Z,21.28
2022-08-24T07:45:15.252Z,21.30
2022-08-24T07:47:49.674Z,21.31
2022-08-24T07:50:21.137Z,21.32
2022-08-24T07:52:49.168Z,21.33
2022-08-24T07:55:15.892Z,21.33
2022-08-24T07:57:42.559Z,21.35
2022-08-24T08:00:12.308Z,21.35
2022-08-24T08:02:39.674Z,21.37
2022-08-24T08:05:07.117Z,21.39
2022-08-24T08:07:33.807Z,21.39
2022-08-24T08:10:03.472Z,21.40
2022-08-24T08:12:30.006Z,21.41
2022-08-24T08:14:56.731Z,21.41
2022-08-24T08:17:23.473Z,21.43
2022-08-24T08:19:50.361Z,21.44
2022-08-24T08:22:17.135Z,21.44
2022-08-24T08:24:43.868Z,21.47
2022-08-24T08:27:13.397Z,21.48
2022-08-24T08:29:40.309Z,21.49
2022-08-24T08:32:08.062Z,21.50
2022-08-24T08:34:34.897Z,21.50
2022-08-24T08:37:02.092Z,21.51
2022-08-24T08:39:28.935Z,21.52
2022-08-24T08:42:12.388Z,21.55
2022-08-24T08:44:52.673Z,21.55
2022-08-24T08:47:38.091Z,21.57
2022-08-24T08:50:12.963Z,21.59
2022-08-24T08:53:08.313Z,21.60
2022-08-24T08:55:42.073Z,21.64
2022-08-24T08:58:15.814Z,21.64
2022-08-24T09:00:55.539Z,21.64
2022-08-24T09:03:49.440Z,21.66
2022-08-24T09:06:32.992Z,21.68
2022-08-24T09:09:15.964Z,21.67
2022-08-24T09:11:56.473Z,21.66
2022-08-24T09:14:40.123Z,21.66
2022-08-24T09:17:23.057Z,21.68
2022-08-24T09:20:06.408Z,21.69
2022-08-24T09:22:39.471Z,21.67
2022-08-24T09:25:24.779Z,21.70
2022-08-24T09:28:09.153Z,21.73
2022-08-24T09:30:55.759Z,21.74
2022-08-24T09:33:30.928Z,21.76
2022-08-24T09:36:07.886Z,21.77
2022-08-24T09:38:56.194Z,21.77
2022-08-24T09:41:56.235Z,21.78
2022-08-24T09:44:56.678Z,21.79
2022-08-24T09:47:49.574Z,21.79
2022-08-24T09:50:35.086Z,21.80
2022-08-24T09:53:32.761Z,21.80
2022-08-24T09:56:12.815Z,21.83
2022-08-24T09:58:56.454Z,21.82
2022-08-24T10:01:33.696Z,21.83
2022-08-24T10:04:14.647Z,21.82
2022-08-24T10:06:57.118Z,21.84
2022-08-24T10:09:47.967Z,21.87
2022-08-24T10:12:24.520Z,21.85
2022-08-24T10:14:56.800Z,21.85
2022-08-24T10:17:40.844Z,21.86
2022-08-24T10:20:12.207Z,21.88
2022-08-24T10:23:03.356Z,21.91
2022-08-24T10:25:38.235Z,21.89
2022-08-24T10:28:27.967Z,21.89
2022-08-24T10:31:03.522Z,21.90
2022-08-24T10:33:35.459Z,21.91
2022-08-24T10:36:31.086Z,21.90
2022-08-24T10:39:18.918Z,21.89
2022-08-24T10:42:07.756Z,21.92
2022-08-24T10:44:46.349Z,21.95
2022-08-24T10:47:21.031Z,21.93
2022-08-24T10:50:12.283Z,21.93
2022-08-24T10:53:02.143Z,21.98
2022-08-24T10:55:33.405Z,21.97
2022-08-24T10:58:12.918Z,21.98
2022-08-24T11:00:40.228Z,21.98
2022-08-24T11:03:11.208Z,21.97
2022-08-24T11:05:42.280Z,21.98
2022-08-24T11:08:18.054Z,21.95
2022-08-24T11:10:46.376Z,21.96
2022-08-24T11:13:20.676Z,21.97
2022-08-24T11:15:49.377Z,21.98
2022-08-24T11:18:16.018Z,21.98
2022-08-24T11:20:45.123Z,21.97
2022-08-24T11:23:17.587Z,21.97
2022-08-24T11:25:57.106Z,21.97
2022-08-24T11:28:31.795Z,21.98
2022-08-24T11:30:59.489Z,21.97
2022-08-24T11:33:29.739Z,21.98
2022-08-24T11:35:57.130Z,21.98
2022-08-24T11:38:25.479Z,21.97
2022-08-24T11:41:00.841Z,21.96
2022-08-24T11:43:47.553Z,21.98
2022-08-24T11:46:27.902Z,21.93
2022-08-24T11:49:06.309Z,21.96
2022-08-24T11:51:41.462Z,21.97
2022-08-24T11:54:18.083Z,21.97
2022-08-24T11:57:01.660Z,22.00
2022-08-24T11:59:42.333Z,21.98
2022-08-24T12:02:16.438Z,21.97
2022-08-24T12:04:53.634Z,22.00
2022-08-24T12:07:31.947Z,21.99
2022-08-24T12:10:10.990Z,22.01
2022-08-24T12:12:46.587Z,22.02
2022-08-24T12:15:20.341Z,22.04
2022-08-24T12:17:50.971Z,22.00
2022-08-24T12:20:26.186Z,21.99
2022-08-24T12:22:57.730Z,21.97
2022-08-24T12:25:27.031Z,21.99
2022-08-24T12:27:55.612Z,22.00
2022-08-24T12:30:22.751Z,21.97
2022-08-24T12:32:54.325Z,22.00
2022-08-24T12:35:27.991Z,22.02
2022-08-24T12:37:58.672Z,22.01
2022-08-24T12:40:31.729Z,22.04
2022-08-24T12:43:06.333Z,22.03
2022-08-24T12:45:32.911Z,22.02
2022-08-24T12:48:07.446Z,22.01
2022-08-24T12:50:41.497Z,22.05
2022-08-24T12:53:28.410Z,22.06
2022-08-24T12:56:17.177Z,22.04
2022-08-24T12:58:56.731Z,22.01
2022-08-24T13:01:29.155Z,22.03
2022-08-24T13:04:14.412Z,22.01
2022-08-24T13:06:45.732Z,22.00
2022-08-24T13:09:26.546Z,22.01
2022-08-24T13:11:53.867Z,21.99
2022-08-24T13:14:23.782Z,22.04
2022-08-24T13:17:09.585Z,22.03
2022-08-24T13:19:40.490Z,22.04
2022-08-24T13:22:36.686Z,22.05
2022-08-24T13:25:22.685Z,22.06
2022-08-24T13:28:06.585Z,22.09
2022-08-24T13:30:38.458Z,22.06
2022-08-24T13:33:09.504Z,22.09
2022-08-24T13:35:54.929Z,22.06
2022-08-24T13:38:33.130Z,22.06
2022-08-24T13:41:09.245Z,22.07
2022-08-24T13:43:45.510Z,22.03
2022-08-24T13:46:22.358Z,22.03
2022-08-24T13:49:00.321Z,22.03
2022-08-24T13:51:42.026Z,22.04
2022-08-24T13:54:22.572Z,22.08
2022-08-24T13:57:08.698Z,22.07
2022-08-24T13:59:56.095Z,22.06
2022-08-24T14:02:35.495Z,22.09
2022-08-24T14:05:12.961Z,22.12
2022-08-24T14:07:52.138Z,22.11
2022-08-24T14:10:36.431Z,22.12
2022-08-24T14:13:16.473Z,22.09
2022-08-24T14:15:55.231Z,22.09
2022-08-24T14:18:32.636Z,22.11
2022-08-24T14:21:07.209Z,22.10
2022-08-24T14:23:47.711Z,22.09
2022-08-24T14:26:42.503Z,22.11
2022-08-24T14:29:26.038Z,22.11
2022-08-24T14:32:17.448Z,22.08
2022-08-24T14:34:59.575Z,22.09
2022-08-24T14:37:39.984Z,22.10
2022-08-24T14:40:15.422Z,22.11
2022-08-24T14:42:52.580Z,22.11
2022-08-24T14:45:23.238Z,22.11
2022-08-24T14:48:07.784Z,22.12
2022-08-24T14:50:43.364Z,22.14
2022-08-24T14:53:29.786Z,22.12
2022-08-24T14:56:07.811Z,22.11
2022-08-24T14:58:42.617Z,22.12
2022-08-24T15:01:37.471Z,22.13
2022-08-24T15:04:36.133Z,22.15
2022-08-24T15:07:25.748Z,22.13
2022-08-24T15:09:53.497Z,22.13
2022-08-24T15:12:29.840Z,22.14
2022-08-24T15:15:04.159Z,22.13
2022-08-24T15:17:41.940Z,22.17
2022-08-24T15:20:17.084Z,22.18
2022-08-24T15:22:49.254Z,22.16
2022-08-24T15:25:23.266Z,22.17
2022-08-24T15:27:54.467Z,22.17
2022-08-24T15:30:24.483Z,22.18
2022-08-24T15:32:53.541Z,22.19
2022-08-24T15:35:26.903Z,22.20
2022-08-24T15:37:54.782Z,22.20
2022-08-24T15:40:25.246Z,22.19
2022-08-24T15:42:52.898Z,22.19
2022-08-24T15:45:20.029Z,22.20
2022-08-24T15:47:51.854Z,22.18
2022-08-24T15:50:24.893Z,22.18
2022-08-24T15:52:58.021Z,22.18
2022-08-24T15:55:38.623Z,22.21
2022-08-24T15:58:24.995Z,22.21
2022-08-24T16:00:51.817Z,22.22
2022-08-24T16:03:21.307Z,22.24
2022-08-24T16:05:51.174Z,22.25
2022-08-24T16:08:19.494Z,22.26
2022-08-24T16:10:48.901Z,22.25
2022-08-24T16:13:24.626Z,22.25
2022-08-24T16:15:58.996Z,22.27
2022-08-24T16:18:43.926Z,22.28
2022-08-24T16:21:14.755Z,22.28
2022-08-24T16:23:52.449Z,22.30
2022-08-24T16:26:24.374Z,22.30
2022-08-24T16:28:53.504Z,22.30
2022-08-24T16:31:45.215Z,22.28
2022-08-24T16:34:21.345Z,22.29
2022-08-24T16:36:47.908Z,22.30
2022-08-24T16:39:15.788Z,22.32
2022-08-24T16:41:42.781Z,22.32
2022-08-24T16:44:10.111Z,22.32
2022-08-24T16:46:38.694Z,22.33
2022-08-24T16:49:06.103Z,22.34
2022-08-24T16:51:39.276Z,22.36
2022-08-24T16:54:12.087Z,22.38
2022-08-24T16:56:40.180Z,22.35
2022-08-24T16:59:06.747Z,22.35
2022-08-24T17:01:33.410Z,22.37
2022-08-24T17:04:00.021Z,22.37
2022-08-24T17:06:26.814Z,22.37
2022-08-24T17:08:53.407Z,22.38
2022-08-24T17:11:19.957Z,22.41
2022-08-24T17:13:50.346Z,22.41
2022-08-24T17:16:18.650Z,22.44
2022-08-24T17:18:45.435Z,22.44
2022-08-24T17:21:12.065Z,22.46
2022-08-24T17:23:40.606Z,22.49
2022-08-24T17:26:20.609Z,22.50
2022-08-24T17:28:52.006Z,22.54
2022-08-24T17:31:18.626Z,22.54
2022-08-24T17:33:45.231Z,22.54
2022-08-24T17:36:15.556Z,22.55
2022-08-24T17:38:46.061Z,22.56
2022-08-24T17:41:13.996Z,22.57
2022-08-24T17:43:44.679Z,22.56
2022-08-24T17:46:14.220Z,22.57
2022-08-24T17:48:43.603Z,22.56
2022-08-24T17:51:11.102Z,22.57
2022-08-24T17:53:37.713Z,22.58
2022-08-24T17:56:07.542Z,22.60
2022-08-24T17:58:34.837Z,22.60
2022-08-24T18:01:01.384Z,22.61
2022-08-24T18:03:29.260Z,22.62
2022-08-24T18:05:55.760Z,22.64
2022-08-24T18:08:22.284Z,22.64
2022-08-24T18:10:48.835Z,22.64
2022-08-24T18:13:15.366Z,22.65
2022-08-24T18:15:41.887Z,22.64
2022-08-24T18:18:10.765Z,22.66
2022-08-24T18:20:41.182Z,22.67
2022-08-24T18:23:11.169Z,22.67
2022-08-24T18:25:43.555Z,22.68
2022-08-24T18:28:10.254Z,22.68
2022-08-24T18:30:36.841Z,22.71
2022-08-24T18:33:04.319Z,22.71
2022-08-24T18:35:30.958Z,22.73
2022-08-24T18:37:58.784Z,22.73
2022-08-24T18:40:25.513Z,22.74
2022-08-24T18:42:56.363Z,22.76
2022-08-24T18:45:30.695Z,22.75
2022-08-24T18:47:57.240Z,22.76
2022-08-24T18:50:23.767Z,22.75
2022-08-24T18:52:50.497Z,22.75
2022-08-24T18:55:25.944Z,22.75
2022-08-24T18:57:53.182Z,22.74
2022-08-24T19:00:19.982Z,22.73
2022-08-24T19:02:46.526Z,22.74
2022-08-24T19:05:18.486Z,22.74
2022-08-24T19:07:46.587Z,22.74
2022-08-24T19:10:16.510Z,22.75
2022-08-24T19:12:47.192Z,22.77
2022-08-24T19:15:35.912Z,22.78
2022-08-24T19:18:00.578Z,22.78
2022-08-24T19:20:27.116Z,22.79
2022-08-24T19:23:00.106Z,22.77
2022-08-24T19:25:27.737Z,22.76
2022-08-24T19:27:55.541Z,22.76
2022-08-24T19:30:22.681Z,22.76
2022-08-24T19:32:49.582Z,22.76
2022-08-24T19:35:16.265Z,22.77
2022-08-24T19:37:43.485Z,22.75
2022-08-24T19:40:10.723Z,22.77
2022-08-24T19:42:37.763Z,22.75
2022-08-24T19:45:08.600Z,22.74
2022-08-24T19:47:35.132Z,22.74
2022-08-24T19:50:02.062Z,22.74
2022-08-24T19:52:32.383Z,22.75
2022-08-24T19:54:58.996Z,22.75
2022-08-24T19:57:35.366Z,22.73
2022-08-24T20:00:22.548Z,22.72
2022-08-24T20:02:51.438Z,22.72
2022-08-24T20:05:20.291Z,22.72
2022-08-24T20:07:47.462Z,22.72
2022-08-24T20:10:15.630Z,22.71
2022-08-24T20:12:42.218Z,22.70
2022-08-24T20:15:09.282Z,22.68
2022-08-24T20:17:37.240Z,22.70
2022-08-24T20:20:04.783Z,22.70
2022-08-24T20:22:31.291Z,22.67
2022-08-24T20:24:57.839Z,22.67
2022-08-24T20:27:27.575Z,22.67
2022-08-24T20:29:55.296Z,22.67
2022-08-24T20:32:22.439Z,22.66
2022-08-24T20:34:50.522Z,22.66
2022-08-24T20:37:21.252Z,22.66
2022-08-24T20:39:48.057Z,22.66
2022-08-24T20:42:18.296Z,22.66
2022-08-24T20:44:47.411Z,22.64
2022-08-24T20:47:14.716Z,22.63
2022-08-24T20:49:41.439Z,22.63
2022-08-24T20:52:09.865Z,22.62
2022-08-24T20:54:39.608Z,22.62
2022-08-24T20:57:08.167Z,22.60
2022-08-24T20:59:34.836Z,22.61
2022-08-24T21:02:01.518Z,22.61
2022-08-24T21:04:28.136Z,22.61
2022-08-24T21:06:56.301Z,22.59
2022-08-24T21:09:24.656Z,22.58
2022-08-24T21:11:51.422Z,22.59
2022-08-24T21:14:18.375Z,22.58
2022-08-24T21:16:45.227Z,22.56
2022-08-24T21:19:13.742Z,22.57
2022-08-24T21:21:42.478Z,22.57
2022-08-24T21:24:09.678Z,22.57
2022-08-24T21:26:38.249Z,22.57
2022-08-24T21:29:07.634Z,22.57
2022-08-24T21:31:34.942Z,22.56
2022-08-24T21:34:01.644Z,22.56
2022-08-24T21:36:28.748Z,22.55
2022-08-24T21:38:55.497Z,22.55
2022-08-24T21:41:22.168Z,22.54
2022-08-24T21:43:51.005Z,22.53
2022-08-24T21:46:17.577Z,22.53
2022-08-24T21:48:44.185Z,22.52
2022-08-24T21:51:10.834Z,22.52
2022-08-24T21:53:37.338Z,22.52
2022-08-24T21:56:04.413Z,22.52
2022-08-24T21:58:31.330Z,22.51
2022-08-24T22:01:00.075Z,22.51
2022-08-24T22:03:27.585Z,22.50
2022-08-24T22:06:01.547Z,22.50
2022-08-24T22:08:28.211Z,22.51
2022-08-24T22:10:55.056Z,22.49
2022-08-24T22:13:21.640Z,22.50
2022-08-24T22:15:48.189Z,22.49
2022-08-24T22:18:16.092Z,22.49
2022-08-24T22:20:42.782Z,22.49
2022-08-24T22:23:09.306Z,22.48
2022-08-24T22:25:36.017Z,22.48
2022-08-24T22:28:03.072Z,22.48
2022-08-24T22:30:32.569Z,22.48
2022-08-24T22:32:59.317Z,22.48
2022-08-24T22:35:27.212Z,22.48
2022-08-24T22:37:53.844Z,22.47
2022-08-24T22:40:20.601Z,22.47
2022-08-24T22:42:47.349Z,22.47
2022-08-24T22:45:13.849Z,22.46
2022-08-24T22:47:40.361Z,22.46
2022-08-24T22:50:07.951Z,22.46
2022-08-24T22:52:35.724Z,22.46
2022-08-24T22:55:02.243Z,22.47
2022-08-24T22:57:29.191Z,22.45
2022-08-24T22:59:57.124Z,22.42
2022-08-24T23:02:23.686Z,22.43
2022-08-24T23:04:51.558Z,22.44
2022-08-24T23:07:18.736Z,22.44
2022-08-24T23:09:46.712Z,22.44
2022-08-24T23:12:15.684Z,22.44
2022-08-24T23:14:42.465Z,22.44
2022-08-24T23:17:09.388Z,22.43
2022-08-24T23:19:36.070Z,22.44
2022-08-24T23:22:02.650Z,22.44
2022-08-24T23:24:29.590Z,22.43
2022-08-24T23:26:57.641Z,22.42
2022-08-24T23:29:24.385Z,22.41
2022-08-24T23:31:51.038Z,22.40
2022-08-24T23:34:17.567Z,22.41
2022-08-24T23:36:44.197Z,22.41
2022-08-24T23:39:11.951Z,22.40
2022-08-24T23:41:40.469Z,22.39
2022-08-24T23:44:13.412Z,22.39
2022-08-24T23:46:40.255Z,22.38
2022-08-24T23:49:07.546Z,22.38
2022-08-24T23:51:34.117Z,22.38
2022-08-24T23:54:02.939Z,22.38
2022-08-24T23:56:31.799Z,22.37
2022-08-24T23:59:01.133Z,22.36
